sensor_id;sensor_type;location;lat;lon;timestamp;temperature;humidity
14884;DHT22;7534;50.762;7.000;2023-04-25T00:00:26;9.30;99.90
14884;DHT22;7534;50.762;7.000;2023-04-25T00:02:52;9.20;99.90
14884;DHT22;7534;50.762;7.000;2023-04-25T00:05:17;9.10;99.90
14884;DHT22;7534;50.762;7.000;2023-04-25T00:07:44;9.10;99.90
14884;DHT22;7534;50.762;7.000;2023-04-25T00:10:11;9.10;99.90
14884;DHT22;7534;50.762;7.000;2023-04-25T00:12:37;9.00;99.90
14884;DHT22;7534;50.762;7.000;2023-04-25T00:15:04;9.00;99.90
14884;DHT22;7534;50.762;7.000;2023-04-25T00:17:30;9.10;99.90
14884;DHT22;7534;50.762;7.000;2023-04-25T00:19:56;9.00;99.90
14884;DHT22;7534;50.762;7.000;2023-04-25T00:22:23;8.90;99.90
14884;DHT22;7534;50.762;7.000;2023-04-25T00:24:49;8.80;99.90
14884;DHT22;7534;50.762;7.000;2023-04-25T00:27:15;8.70;99.90
14884;DHT22;7534;50.762;7.000;2023-04-25T00:29:41;8.70;99.90
14884;DHT22;7534;50.762;7.000;2023-04-25T00:32:07;8.70;99.90
14884;DHT22;7534;50.762;7.000;2023-04-25T00:34:32;8.60;99.90
14884;DHT22;7534;50.762;7.000;2023-04-25T00:36:59;8.50;99.90
14884;DHT22;7534;50.762;7.000;2023-04-25T00:39:27;8.50;99.90
14884;DHT22;7534;50.762;7.000;2023-04-25T00:41:54;8.40;99.90
14884;DHT22;7534;50.762;7.000;2023-04-25T00:44:20;8.50;99.90
14884;DHT22;7534;50.762;7.000;2023-04-25T00:46:47;8.40;99.90
14884;DHT22;7534;50.762;7.000;2023-04-25T00:49:14;8.40;99.90
14884;DHT22;7534;50.762;7.000;2023-04-25T00:51:42;8.30;99.90
14884;DHT22;7534;50.762;7.000;2023-04-25T00:54:12;8.30;99.90
14884;DHT22;7534;50.762;7.000;2023-04-25T00:56:39;8.20;99.90
14884;DHT22;7534;50.762;7.000;2023-04-25T00:59:05;8.10;99.90
14884;DHT22;7534;50.762;7.000;2023-04-25T01:01:32;8.00;99.90
14884;DHT22;7534;50.762;7.000;2023-04-25T01:03:59;7.90;99.90
14884;DHT22;7534;50.762;7.000;2023-04-25T01:06:26;7.80;99.90
14884;DHT22;7534;50.762;7.000;2023-04-25T01:08:53;7.70;99.90
14884;DHT22;7534;50.762;7.000;2023-04-25T01:11:19;7.60;99.90
14884;DHT22;7534;50.762;7.000;2023-04-25T01:13:45;7.50;99.90
14884;DHT22;7534;50.762;7.000;2023-04-25T01:16:11;7.40;99.90
14884;DHT22;7534;50.762;7.000;2023-04-25T01:18:38;7.30;99.90
14884;DHT22;7534;50.762;7.000;2023-04-25T01:21:10;7.20;99.90
14884;DHT22;7534;50.762;7.000;2023-04-25T01:23:40;7.10;99.90
14884;DHT22;7534;50.762;7.000;2023-04-25T01:26:09;7.00;99.90
14884;DHT22;7534;50.762;7.000;2023-04-25T01:28:36;7.00;99.90
14884;DHT22;7534;50.762;7.000;2023-04-25T01:31:04;6.90;99.90
14884;DHT22;7534;50.762;7.000;2023-04-25T01:33:31;6.80;99.90
14884;DHT22;7534;50.762;7.000;2023-04-25T01:35:56;6.70;99.90
14884;DHT22;7534;50.762;7.000;2023-04-25T01:38:22;6.70;99.90
14884;DHT22;7534;50.762;7.000;2023-04-25T01:40:49;6.70;99.90
14884;DHT22;7534;50.762;7.000;2023-04-25T01:43:16;6.60;99.90
14884;DHT22;7534;50.762;7.000;2023-04-25T01:45:42;6.60;99.90
14884;DHT22;7534;50.762;7.000;2023-04-25T01:48:09;6.50;99.90
14884;DHT22;7534;50.762;7.000;2023-04-25T01:50:37;6.50;99.90
14884;DHT22;7534;50.762;7.000;2023-04-25T01:53:04;6.50;99.90
14884;DHT22;7534;50.762;7.000;2023-04-25T01:55:30;6.50;99.90
14884;DHT22;7534;50.762;7.000;2023-04-25T01:57:56;6.60;99.90
14884;DHT22;7534;50.762;7.000;2023-04-25T02:00:22;6.50;99.90
14884;DHT22;7534;50.762;7.000;2023-04-25T02:02:48;6.50;99.90
14884;DHT22;7534;50.762;7.000;2023-04-25T02:05:16;6.40;99.90
14884;DHT22;7534;50.762;7.000;2023-04-25T02:07:42;6.40;99.90
14884;DHT22;7534;50.762;7.000;2023-04-25T02:10:08;6.50;99.90
14884;DHT22;7534;50.762;7.000;2023-04-25T02:12:35;6.50;99.90
14884;DHT22;7534;50.762;7.000;2023-04-25T02:15:01;6.50;99.90
14884;DHT22;7534;50.762;7.000;2023-04-25T02:17:27;6.40;99.90
14884;DHT22;7534;50.762;7.000;2023-04-25T02:19:52;6.50;99.90
14884;DHT22;7534;50.762;7.000;2023-04-25T02:22:18;6.50;99.90
14884;DHT22;7534;50.762;7.000;2023-04-25T02:24:44;6.50;99.90
14884;DHT22;7534;50.762;7.000;2023-04-25T02:27:10;6.40;99.90
14884;DHT22;7534;50.762;7.000;2023-04-25T02:29:35;6.40;99.90
14884;DHT22;7534;50.762;7.000;2023-04-25T02:32:01;6.50;99.90
14884;DHT22;7534;50.762;7.000;2023-04-25T02:34:27;6.40;99.90
14884;DHT22;7534;50.762;7.000;2023-04-25T02:36:52;6.50;99.90
14884;DHT22;7534;50.762;7.000;2023-04-25T02:39:18;6.40;99.90
14884;DHT22;7534;50.762;7.000;2023-04-25T02:41:44;6.50;99.90
14884;DHT22;7534;50.762;7.000;2023-04-25T02:44:09;6.50;99.90
14884;DHT22;7534;50.762;7.000;2023-04-25T02:46:35;6.50;99.90
14884;DHT22;7534;50.762;7.000;2023-04-25T02:49:01;6.60;99.90
14884;DHT22;7534;50.762;7.000;2023-04-25T02:51:26;6.50;99.90
14884;DHT22;7534;50.762;7.000;2023-04-25T02:53:52;6.60;99.90
14884;DHT22;7534;50.762;7.000;2023-04-25T02:56:18;6.60;99.90
14884;DHT22;7534;50.762;7.000;2023-04-25T02:58:43;6.50;99.90
14884;DHT22;7534;50.762;7.000;2023-04-25T03:01:10;6.60;99.90
14884;DHT22;7534;50.762;7.000;2023-04-25T03:03:36;6.70;99.90
14884;DHT22;7534;50.762;7.000;2023-04-25T03:06:02;6.70;99.90
14884;DHT22;7534;50.762;7.000;2023-04-25T03:08:28;6.70;99.90
14884;DHT22;7534;50.762;7.000;2023-04-25T03:10:58;6.70;99.90
14884;DHT22;7534;50.762;7.000;2023-04-25T03:13:24;6.80;99.90
14884;DHT22;7534;50.762;7.000;2023-04-25T03:15:50;6.80;99.90
14884;DHT22;7534;50.762;7.000;2023-04-25T03:18:15;6.70;99.90
14884;DHT22;7534;50.762;7.000;2023-04-25T03:20:41;6.70;99.90
14884;DHT22;7534;50.762;7.000;2023-04-25T03:23:07;6.70;99.90
14884;DHT22;7534;50.762;7.000;2023-04-25T03:25:33;6.70;99.90
14884;DHT22;7534;50.762;7.000;2023-04-25T03:27:58;6.70;99.90
14884;DHT22;7534;50.762;7.000;2023-04-25T03:30:24;6.70;99.90
14884;DHT22;7534;50.762;7.000;2023-04-25T03:32:50;6.70;99.90
14884;DHT22;7534;50.762;7.000;2023-04-25T03:35:17;6.70;99.90
14884;DHT22;7534;50.762;7.000;2023-04-25T03:37:42;6.70;99.90
14884;DHT22;7534;50.762;7.000;2023-04-25T03:40:11;6.70;99.90
14884;DHT22;7534;50.762;7.000;2023-04-25T03:42:37;6.70;99.90
14884;DHT22;7534;50.762;7.000;2023-04-25T03:45:03;6.80;99.90
14884;DHT22;7534;50.762;7.000;2023-04-25T03:47:29;6.80;99.90
14884;DHT22;7534;50.762;7.000;2023-04-25T03:49:55;6.80;99.90
14884;DHT22;7534;50.762;7.000;2023-04-25T03:52:20;6.90;99.90
14884;DHT22;7534;50.762;7.000;2023-04-25T03:54:46;6.90;99.90
14884;DHT22;7534;50.762;7.000;2023-04-25T03:57:12;7.00;99.90
14884;DHT22;7534;50.762;7.000;2023-04-25T03:59:37;7.00;99.90
14884;DHT22;7534;50.762;7.000;2023-04-25T04:02:03;7.10;99.90
14884;DHT22;7534;50.762;7.000;2023-04-25T04:04:29;7.20;99.90
14884;DHT22;7534;50.762;7.000;2023-04-25T04:06:55;7.30;99.90
14884;DHT22;7534;50.762;7.000;2023-04-25T04:09:21;7.40;99.90
14884;DHT22;7534;50.762;7.000;2023-04-25T04:11:47;7.30;99.90
14884;DHT22;7534;50.762;7.000;2023-04-25T04:14:13;7.40;99.90
14884;DHT22;7534;50.762;7.000;2023-04-25T04:16:38;7.50;99.90
14884;DHT22;7534;50.762;7.000;2023-04-25T04:19:04;7.40;99.90
14884;DHT22;7534;50.762;7.000;2023-04-25T04:21:30;7.60;99.90
14884;DHT22;7534;50.762;7.000;2023-04-25T04:23:55;7.60;99.90
14884;DHT22;7534;50.762;7.000;2023-04-25T04:26:23;7.60;99.90
14884;DHT22;7534;50.762;7.000;2023-04-25T04:28:49;7.60;99.90
14884;DHT22;7534;50.762;7.000;2023-04-25T04:31:17;7.70;99.90
14884;DHT22;7534;50.762;7.000;2023-04-25T04:33:45;7.70;99.90
14884;DHT22;7534;50.762;7.000;2023-04-25T04:36:11;7.70;99.90
14884;DHT22;7534;50.762;7.000;2023-04-25T04:38:36;7.70;99.90
14884;DHT22;7534;50.762;7.000;2023-04-25T04:41:02;7.70;99.90
14884;DHT22;7534;50.762;7.000;2023-04-25T04:43:28;7.80;99.90
14884;DHT22;7534;50.762;7.000;2023-04-25T04:45:55;7.90;99.90
14884;DHT22;7534;50.762;7.000;2023-04-25T04:48:24;7.70;99.90
14884;DHT22;7534;50.762;7.000;2023-04-25T04:50:49;7.70;99.90
14884;DHT22;7534;50.762;7.000;2023-04-25T04:53:15;7.80;99.90
14884;DHT22;7534;50.762;7.000;2023-04-25T04:55:41;7.90;99.90
14884;DHT22;7534;50.762;7.000;2023-04-25T04:58:07;7.90;99.90
14884;DHT22;7534;50.762;7.000;2023-04-25T05:00:33;7.80;99.90
14884;DHT22;7534;50.762;7.000;2023-04-25T05:02:59;7.90;99.90
14884;DHT22;7534;50.762;7.000;2023-04-25T05:05:25;7.90;99.90
14884;DHT22;7534;50.762;7.000;2023-04-25T05:07:51;8.00;99.90
14884;DHT22;7534;50.762;7.000;2023-04-25T05:10:19;8.10;99.90
14884;DHT22;7534;50.762;7.000;2023-04-25T05:12:45;8.20;99.90
14884;DHT22;7534;50.762;7.000;2023-04-25T05:15:11;8.20;99.90
14884;DHT22;7534;50.762;7.000;2023-04-25T05:17:38;8.30;99.90
14884;DHT22;7534;50.762;7.000;2023-04-25T05:20:05;8.30;99.90
14884;DHT22;7534;50.762;7.000;2023-04-25T05:22:33;8.50;99.90
14884;DHT22;7534;50.762;7.000;2023-04-25T05:24:58;8.50;99.90
14884;DHT22;7534;50.762;7.000;2023-04-25T05:27:24;8.60;99.90
14884;DHT22;7534;50.762;7.000;2023-04-25T05:29:50;8.80;99.90
14884;DHT22;7534;50.762;7.000;2023-04-25T05:32:15;8.80;99.90
14884;DHT22;7534;50.762;7.000;2023-04-25T05:34:41;8.60;99.90
14884;DHT22;7534;50.762;7.000;2023-04-25T05:37:07;8.80;99.90
14884;DHT22;7534;50.762;7.000;2023-04-25T05:39:32;8.80;99.90
14884;DHT22;7534;50.762;7.000;2023-04-25T05:41:58;8.90;99.90
14884;DHT22;7534;50.762;7.000;2023-04-25T05:44:24;9.00;99.90
14884;DHT22;7534;50.762;7.000;2023-04-25T05:46:49;9.30;99.90
14884;DHT22;7534;50.762;7.000;2023-04-25T05:49:15;9.40;99.90
14884;DHT22;7534;50.762;7.000;2023-04-25T05:51:40;9.40;99.90
14884;DHT22;7534;50.762;7.000;2023-04-25T05:54:06;9.70;99.90
14884;DHT22;7534;50.762;7.000;2023-04-25T05:56:32;9.70;99.90
14884;DHT22;7534;50.762;7.000;2023-04-25T05:58:57;9.70;99.90
14884;DHT22;7534;50.762;7.000;2023-04-25T06:01:23;10.00;99.90
14884;DHT22;7534;50.762;7.000;2023-04-25T06:03:49;10.10;99.90
14884;DHT22;7534;50.762;7.000;2023-04-25T06:06:16;10.20;99.90
14884;DHT22;7534;50.762;7.000;2023-04-25T06:08:42;10.30;99.90
14884;DHT22;7534;50.762;7.000;2023-04-25T06:11:07;10.40;99.90
14884;DHT22;7534;50.762;7.000;2023-04-25T06:13:33;10.50;99.90
14884;DHT22;7534;50.762;7.000;2023-04-25T06:15:59;10.50;99.90
14884;DHT22;7534;50.762;7.000;2023-04-25T06:18:24;10.60;99.90
14884;DHT22;7534;50.762;7.000;2023-04-25T06:20:50;10.70;99.90
14884;DHT22;7534;50.762;7.000;2023-04-25T06:23:16;11.20;99.90
14884;DHT22;7534;50.762;7.000;2023-04-25T06:25:41;11.40;99.90
14884;DHT22;7534;50.762;7.000;2023-04-25T06:28:07;11.60;99.90
14884;DHT22;7534;50.762;7.000;2023-04-25T06:30:33;11.70;99.90
14884;DHT22;7534;50.762;7.000;2023-04-25T06:32:59;11.70;99.90
14884;DHT22;7534;50.762;7.000;2023-04-25T06:35:24;11.60;99.90
14884;DHT22;7534;50.762;7.000;2023-04-25T06:37:50;11.50;99.90
14884;DHT22;7534;50.762;7.000;2023-04-25T06:40:15;11.50;99.90
14884;DHT22;7534;50.762;7.000;2023-04-25T06:42:42;11.70;99.90
14884;DHT22;7534;50.762;7.000;2023-04-25T06:45:09;11.90;99.90
14884;DHT22;7534;50.762;7.000;2023-04-25T06:47:35;12.70;99.90
14884;DHT22;7534;50.762;7.000;2023-04-25T06:50:01;13.60;99.90
14884;DHT22;7534;50.762;7.000;2023-04-25T06:52:27;14.80;99.90
14884;DHT22;7534;50.762;7.000;2023-04-25T06:54:52;16.40;99.90
14884;DHT22;7534;50.762;7.000;2023-04-25T07:09:29;17.80;70.80
14884;DHT22;7534;50.762;7.000;2023-04-25T07:11:55;17.90;71.60
14884;DHT22;7534;50.762;7.000;2023-04-25T07:14:22;17.00;74.00
14884;DHT22;7534;50.762;7.000;2023-04-25T07:16:47;17.20;77.50
14884;DHT22;7534;50.762;7.000;2023-04-25T07:19:13;18.40;73.80
14884;DHT22;7534;50.762;7.000;2023-04-25T07:21:41;18.50;70.00
14884;DHT22;7534;50.762;7.000;2023-04-25T07:24:06;18.00;71.70
14884;DHT22;7534;50.762;7.000;2023-04-25T07:26:33;16.80;73.40
14884;DHT22;7534;50.762;7.000;2023-04-25T07:28:59;16.40;77.30
14884;DHT22;7534;50.762;7.000;2023-04-25T07:31:25;16.20;78.50
14884;DHT22;7534;50.762;7.000;2023-04-25T07:33:50;15.90;77.90
14884;DHT22;7534;50.762;7.000;2023-04-25T07:36:16;15.50;80.00
14884;DHT22;7534;50.762;7.000;2023-04-25T07:38:42;15.50;80.10
14884;DHT22;7534;50.762;7.000;2023-04-25T07:41:07;14.90;90.40
14884;DHT22;7534;50.762;7.000;2023-04-25T07:43:33;15.30;90.40
14884;DHT22;7534;50.762;7.000;2023-04-25T07:45:59;15.40;89.40
14884;DHT22;7534;50.762;7.000;2023-04-25T07:48:24;15.30;89.70
14884;DHT22;7534;50.762;7.000;2023-04-25T07:50:50;14.70;81.00
14884;DHT22;7534;50.762;7.000;2023-04-25T07:53:16;14.30;82.70
14884;DHT22;7534;50.762;7.000;2023-04-25T07:55:43;14.50;82.80
14884;DHT22;7534;50.762;7.000;2023-04-25T07:58:09;14.30;81.80
14884;DHT22;7534;50.762;7.000;2023-04-25T08:00:35;14.20;82.40
14884;DHT22;7534;50.762;7.000;2023-04-25T08:03:02;14.50;83.60
14884;DHT22;7534;50.762;7.000;2023-04-25T08:05:29;14.70;83.50
14884;DHT22;7534;50.762;7.000;2023-04-25T08:07:55;14.90;82.60
14884;DHT22;7534;50.762;7.000;2023-04-25T08:10:22;14.60;80.80
14884;DHT22;7534;50.762;7.000;2023-04-25T08:12:48;14.20;82.60
14884;DHT22;7534;50.762;7.000;2023-04-25T08:15:14;13.80;83.50
14884;DHT22;7534;50.762;7.000;2023-04-25T08:17:40;13.10;84.90
14884;DHT22;7534;50.762;7.000;2023-04-25T08:20:06;13.00;84.60
14884;DHT22;7534;50.762;7.000;2023-04-25T08:22:32;12.80;86.80
14884;DHT22;7534;50.762;7.000;2023-04-25T08:24:59;12.60;86.00
14884;DHT22;7534;50.762;7.000;2023-04-25T08:27:25;12.60;85.40
14884;DHT22;7534;50.762;7.000;2023-04-25T08:29:50;12.10;85.10
14884;DHT22;7534;50.762;7.000;2023-04-25T08:32:16;11.90;86.40
14884;DHT22;7534;50.762;7.000;2023-04-25T08:34:43;11.60;88.00
14884;DHT22;7534;50.762;7.000;2023-04-25T08:37:09;11.40;87.80
14884;DHT22;7534;50.762;7.000;2023-04-25T08:39:38;11.40;90.00
14884;DHT22;7534;50.762;7.000;2023-04-25T08:42:06;11.20;90.70
14884;DHT22;7534;50.762;7.000;2023-04-25T08:44:36;11.30;90.40
14884;DHT22;7534;50.762;7.000;2023-04-25T08:47:03;11.60;90.20
14884;DHT22;7534;50.762;7.000;2023-04-25T08:49:32;11.80;89.00
14884;DHT22;7534;50.762;7.000;2023-04-25T08:52:00;12.50;87.10
14884;DHT22;7534;50.762;7.000;2023-04-25T08:54:29;13.30;83.00
14884;DHT22;7534;50.762;7.000;2023-04-25T08:56:57;14.10;82.30
14884;DHT22;7534;50.762;7.000;2023-04-25T08:59:27;14.90;79.50
14884;DHT22;7534;50.762;7.000;2023-04-25T09:01:53;14.80;77.60
14884;DHT22;7534;50.762;7.000;2023-04-25T09:04:19;15.50;77.00
14884;DHT22;7534;50.762;7.000;2023-04-25T09:06:46;16.10;72.80
14884;DHT22;7534;50.762;7.000;2023-04-25T09:09:12;15.70;69.50
14884;DHT22;7534;50.762;7.000;2023-04-25T09:11:37;15.50;69.20
14884;DHT22;7534;50.762;7.000;2023-04-25T09:14:17;15.30;66.90
14884;DHT22;7534;50.762;7.000;2023-04-25T09:16:57;15.30;68.50
14884;DHT22;7534;50.762;7.000;2023-04-25T09:19:36;15.30;69.20
14884;DHT22;7534;50.762;7.000;2023-04-25T09:22:05;15.20;67.30
14884;DHT22;7534;50.762;7.000;2023-04-25T09:24:43;14.60;68.50
14884;DHT22;7534;50.762;7.000;2023-04-25T09:27:13;14.50;71.20
14884;DHT22;7534;50.762;7.000;2023-04-25T09:29:44;13.60;70.30
14884;DHT22;7534;50.762;7.000;2023-04-25T09:32:20;13.00;74.90
14884;DHT22;7534;50.762;7.000;2023-04-25T09:34:55;12.80;77.00
14884;DHT22;7534;50.762;7.000;2023-04-25T09:37:29;12.70;79.10
14884;DHT22;7534;50.762;7.000;2023-04-25T09:40:00;12.70;79.50
14884;DHT22;7534;50.762;7.000;2023-04-25T09:42:28;12.70;80.00
14884;DHT22;7534;50.762;7.000;2023-04-25T09:44:57;12.90;80.20
14884;DHT22;7534;50.762;7.000;2023-04-25T09:47:25;13.20;79.50
14884;DHT22;7534;50.762;7.000;2023-04-25T09:49:52;13.80;77.90
14884;DHT22;7534;50.762;7.000;2023-04-25T09:52:20;14.90;74.90
14884;DHT22;7534;50.762;7.000;2023-04-25T09:54:48;15.00;69.90
14884;DHT22;7534;50.762;7.000;2023-04-25T09:57:18;15.30;69.90
14884;DHT22;7534;50.762;7.000;2023-04-25T09:59:50;15.30;68.50
14884;DHT22;7534;50.762;7.000;2023-04-25T10:02:20;15.10;67.20
14884;DHT22;7534;50.762;7.000;2023-04-25T10:04:52;14.60;67.20
14884;DHT22;7534;50.762;7.000;2023-04-25T10:07:24;14.40;68.10
14884;DHT22;7534;50.762;7.000;2023-04-25T10:09:59;14.40;69.40
14884;DHT22;7534;50.762;7.000;2023-04-25T10:12:27;14.40;68.40
14884;DHT22;7534;50.762;7.000;2023-04-25T10:14:52;14.00;68.80
14884;DHT22;7534;50.762;7.000;2023-04-25T10:17:20;13.70;70.00
14884;DHT22;7534;50.762;7.000;2023-04-25T10:19:51;13.80;71.20
14884;DHT22;7534;50.762;7.000;2023-04-25T10:22:31;13.90;72.30
14884;DHT22;7534;50.762;7.000;2023-04-25T10:25:00;14.00;71.30
14884;DHT22;7534;50.762;7.000;2023-04-25T10:27:29;14.50;69.40
14884;DHT22;7534;50.762;7.000;2023-04-25T10:30:13;14.90;68.80
14884;DHT22;7534;50.762;7.000;2023-04-25T10:32:42;15.70;68.50
14884;DHT22;7534;50.762;7.000;2023-04-25T10:35:15;16.20;67.30
14884;DHT22;7534;50.762;7.000;2023-04-25T10:38:05;16.20;64.90
14884;DHT22;7534;50.762;7.000;2023-04-25T10:40:35;15.70;64.00
14884;DHT22;7534;50.762;7.000;2023-04-25T10:46:27;14.50;65.90
14884;DHT22;7534;50.762;7.000;2023-04-25T10:49:01;13.80;70.20
14884;DHT22;7534;50.762;7.000;2023-04-25T10:51:29;13.30;72.80
14884;DHT22;7534;50.762;7.000;2023-04-25T10:54:07;13.10;73.80
14884;DHT22;7534;50.762;7.000;2023-04-25T10:56:38;12.90;75.30
14884;DHT22;7534;50.762;7.000;2023-04-25T10:59:10;12.80;75.00
14884;DHT22;7534;50.762;7.000;2023-04-25T11:01:49;12.90;76.90
14884;DHT22;7534;50.762;7.000;2023-04-25T11:04:21;13.20;76.70
14884;DHT22;7534;50.762;7.000;2023-04-25T11:07:10;13.30;76.20
14884;DHT22;7534;50.762;7.000;2023-04-25T11:09:39;13.80;74.40
14884;DHT22;7534;50.762;7.000;2023-04-25T11:12:08;14.00;74.10
14884;DHT22;7534;50.762;7.000;2023-04-25T11:14:36;14.50;73.80
14884;DHT22;7534;50.762;7.000;2023-04-25T11:17:02;14.70;71.40
14884;DHT22;7534;50.762;7.000;2023-04-25T11:19:28;14.80;72.60
14884;DHT22;7534;50.762;7.000;2023-04-25T11:22:00;15.00;71.20
14884;DHT22;7534;50.762;7.000;2023-04-25T11:24:31;15.30;70.80
14884;DHT22;7534;50.762;7.000;2023-04-25T11:26:58;15.40;68.20
14884;DHT22;7534;50.762;7.000;2023-04-25T11:29:28;14.80;69.80
14884;DHT22;7534;50.762;7.000;2023-04-25T11:31:56;14.50;70.70
14884;DHT22;7534;50.762;7.000;2023-04-25T11:34:23;14.40;70.20
14884;DHT22;7534;50.762;7.000;2023-04-25T11:36:51;13.70;71.20
14884;DHT22;7534;50.762;7.000;2023-04-25T11:39:21;13.30;74.30
14884;DHT22;7534;50.762;7.000;2023-04-25T11:41:47;13.10;76.10
14884;DHT22;7534;50.762;7.000;2023-04-25T11:44:16;12.70;77.50
14884;DHT22;7534;50.762;7.000;2023-04-25T11:46:43;12.40;78.50
14884;DHT22;7534;50.762;7.000;2023-04-25T11:49:09;12.10;80.10
14884;DHT22;7534;50.762;7.000;2023-04-25T11:51:44;11.90;82.60
14884;DHT22;7534;50.762;7.000;2023-04-25T11:54:12;11.70;83.30
14884;DHT22;7534;50.762;7.000;2023-04-25T11:56:41;11.70;80.50
14884;DHT22;7534;50.762;7.000;2023-04-25T11:59:08;11.90;78.20
14884;DHT22;7534;50.762;7.000;2023-04-25T12:01:38;11.90;77.30
14884;DHT22;7534;50.762;7.000;2023-04-25T12:04:16;12.00;77.30
14884;DHT22;7534;50.762;7.000;2023-04-25T12:06:47;12.20;77.20
14884;DHT22;7534;50.762;7.000;2023-04-25T12:09:15;12.60;75.10
14884;DHT22;7534;50.762;7.000;2023-04-25T12:11:54;13.00;74.90
14884;DHT22;7534;50.762;7.000;2023-04-25T12:14:28;13.90;75.20
14884;DHT22;7534;50.762;7.000;2023-04-25T12:16:58;14.30;70.40
14884;DHT22;7534;50.762;7.000;2023-04-25T12:19:31;14.40;68.00
14884;DHT22;7534;50.762;7.000;2023-04-25T12:22:00;14.30;67.50
14884;DHT22;7534;50.762;7.000;2023-04-25T12:24:45;14.60;68.10
14884;DHT22;7534;50.762;7.000;2023-04-25T12:27:10;14.60;67.80
14884;DHT22;7534;50.762;7.000;2023-04-25T12:29:51;14.80;67.90
14884;DHT22;7534;50.762;7.000;2023-04-25T12:32:18;14.90;68.10
14884;DHT22;7534;50.762;7.000;2023-04-25T12:34:44;15.10;69.70
14884;DHT22;7534;50.762;7.000;2023-04-25T12:37:10;14.80;68.30
14884;DHT22;7534;50.762;7.000;2023-04-25T12:39:36;14.60;67.80
14884;DHT22;7534;50.762;7.000;2023-04-25T12:42:02;14.50;69.20
14884;DHT22;7534;50.762;7.000;2023-04-25T12:44:28;14.70;71.10
14884;DHT22;7534;50.762;7.000;2023-04-25T12:46:54;14.90;69.50
14884;DHT22;7534;50.762;7.000;2023-04-25T12:49:20;15.30;69.40
14884;DHT22;7534;50.762;7.000;2023-04-25T12:51:46;15.70;66.70
14884;DHT22;7534;50.762;7.000;2023-04-25T12:54:13;15.90;63.40
14884;DHT22;7534;50.762;7.000;2023-04-25T12:56:40;16.20;64.00
14884;DHT22;7534;50.762;7.000;2023-04-25T12:59:06;16.30;62.30
14884;DHT22;7534;50.762;7.000;2023-04-25T13:01:32;16.40;63.10
14884;DHT22;7534;50.762;7.000;2023-04-25T13:03:58;16.20;62.70
14884;DHT22;7534;50.762;7.000;2023-04-25T13:06:23;15.80;63.50
14884;DHT22;7534;50.762;7.000;2023-04-25T13:08:49;15.80;63.00
14884;DHT22;7534;50.762;7.000;2023-04-25T13:11:16;16.00;64.20
14884;DHT22;7534;50.762;7.000;2023-04-25T13:13:43;15.90;60.80
14884;DHT22;7534;50.762;7.000;2023-04-25T13:16:09;15.80;63.00
14884;DHT22;7534;50.762;7.000;2023-04-25T13:18:35;15.40;62.80
14884;DHT22;7534;50.762;7.000;2023-04-25T13:21:01;15.20;63.90
14884;DHT22;7534;50.762;7.000;2023-04-25T13:23:28;14.90;63.10
14884;DHT22;7534;50.762;7.000;2023-04-25T13:25:55;14.60;65.10
14884;DHT22;7534;50.762;7.000;2023-04-25T13:28:23;13.90;65.10
14884;DHT22;7534;50.762;7.000;2023-04-25T13:30:50;13.60;67.50
14884;DHT22;7534;50.762;7.000;2023-04-25T13:33:17;13.20;70.00
14884;DHT22;7534;50.762;7.000;2023-04-25T13:35:44;12.80;71.00
14884;DHT22;7534;50.762;7.000;2023-04-25T13:38:25;12.10;73.60
14884;DHT22;7534;50.762;7.000;2023-04-25T13:40:52;11.70;76.10
14884;DHT22;7534;50.762;7.000;2023-04-25T13:43:21;11.50;76.30
14884;DHT22;7534;50.762;7.000;2023-04-25T13:45:48;11.50;78.40
14884;DHT22;7534;50.762;7.000;2023-04-25T13:48:17;11.50;79.40
14884;DHT22;7534;50.762;7.000;2023-04-25T13:50:44;11.70;79.80
14884;DHT22;7534;50.762;7.000;2023-04-25T13:53:10;12.10;80.00
14884;DHT22;7534;50.762;7.000;2023-04-25T13:55:37;12.40;78.20
14884;DHT22;7534;50.762;7.000;2023-04-25T13:58:04;12.60;76.60
14884;DHT22;7534;50.762;7.000;2023-04-25T14:00:34;13.10;75.10
14884;DHT22;7534;50.762;7.000;2023-04-25T14:03:02;13.20;73.60
14884;DHT22;7534;50.762;7.000;2023-04-25T14:05:30;13.60;74.40
14884;DHT22;7534;50.762;7.000;2023-04-25T14:07:56;13.70;74.00
14884;DHT22;7534;50.762;7.000;2023-04-25T14:10:21;13.80;70.30
14884;DHT22;7534;50.762;7.000;2023-04-25T14:12:47;13.70;70.50
14884;DHT22;7534;50.762;7.000;2023-04-25T14:15:13;13.90;69.70
14884;DHT22;7534;50.762;7.000;2023-04-25T14:17:38;13.90;67.90
14884;DHT22;7534;50.762;7.000;2023-04-25T14:20:05;13.80;69.60
14884;DHT22;7534;50.762;7.000;2023-04-25T14:22:34;14.20;69.50
14884;DHT22;7534;50.762;7.000;2023-04-25T14:25:00;14.00;67.70
14884;DHT22;7534;50.762;7.000;2023-04-25T14:27:26;14.30;68.60
14884;DHT22;7534;50.762;7.000;2023-04-25T14:29:52;14.50;67.90
14884;DHT22;7534;50.762;7.000;2023-04-25T14:32:17;14.80;66.30
14884;DHT22;7534;50.762;7.000;2023-04-25T14:34:43;15.00;63.80
14884;DHT22;7534;50.762;7.000;2023-04-25T14:37:09;15.30;61.40
14884;DHT22;7534;50.762;7.000;2023-04-25T14:39:34;15.30;58.30
14884;DHT22;7534;50.762;7.000;2023-04-25T14:42:00;15.10;59.60
14884;DHT22;7534;50.762;7.000;2023-04-25T14:44:26;15.20;59.30
14884;DHT22;7534;50.762;7.000;2023-04-25T14:46:52;14.90;60.10
14884;DHT22;7534;50.762;7.000;2023-04-25T14:49:18;14.70;61.50
14884;DHT22;7534;50.762;7.000;2023-04-25T14:51:43;14.40;58.80
14884;DHT22;7534;50.762;7.000;2023-04-25T14:54:09;14.20;59.90
14884;DHT22;7534;50.762;7.000;2023-04-25T14:56:36;14.30;61.60
14884;DHT22;7534;50.762;7.000;2023-04-25T14:59:01;14.30;63.70
14884;DHT22;7534;50.762;7.000;2023-04-25T15:01:28;14.40;60.00
14884;DHT22;7534;50.762;7.000;2023-04-25T15:03:54;14.20;59.80
14884;DHT22;7534;50.762;7.000;2023-04-25T15:06:19;14.00;58.90
14884;DHT22;7534;50.762;7.000;2023-04-25T15:08:45;14.10;62.00
14884;DHT22;7534;50.762;7.000;2023-04-25T15:11:11;13.90;59.40
14884;DHT22;7534;50.762;7.000;2023-04-25T15:13:37;13.50;58.30
14884;DHT22;7534;50.762;7.000;2023-04-25T15:16:03;13.60;57.70
14884;DHT22;7534;50.762;7.000;2023-04-25T15:18:28;13.70;59.30
14884;DHT22;7534;50.762;7.000;2023-04-25T15:20:54;13.60;61.00
14884;DHT22;7534;50.762;7.000;2023-04-25T15:23:20;13.70;62.70
14884;DHT22;7534;50.762;7.000;2023-04-25T15:25:46;13.60;63.40
14884;DHT22;7534;50.762;7.000;2023-04-25T15:28:12;13.70;61.80
14884;DHT22;7534;50.762;7.000;2023-04-25T15:30:42;14.00;63.80
14884;DHT22;7534;50.762;7.000;2023-04-25T15:33:08;14.00;59.90
14884;DHT22;7534;50.762;7.000;2023-04-25T15:35:34;14.10;59.90
14884;DHT22;7534;50.762;7.000;2023-04-25T15:38:00;14.10;58.50
14884;DHT22;7534;50.762;7.000;2023-04-25T15:40:25;14.30;59.00
14884;DHT22;7534;50.762;7.000;2023-04-25T15:42:51;14.50;58.80
14884;DHT22;7534;50.762;7.000;2023-04-25T15:45:19;14.50;57.80
14884;DHT22;7534;50.762;7.000;2023-04-25T15:47:47;14.40;57.60
14884;DHT22;7534;50.762;7.000;2023-04-25T15:50:13;14.20;58.60
14884;DHT22;7534;50.762;7.000;2023-04-25T15:52:40;14.00;59.40
14884;DHT22;7534;50.762;7.000;2023-04-25T15:55:08;13.80;58.60
14884;DHT22;7534;50.762;7.000;2023-04-25T15:57:36;13.90;60.10
14884;DHT22;7534;50.762;7.000;2023-04-25T16:00:04;14.00;60.10
14884;DHT22;7534;50.762;7.000;2023-04-25T16:02:44;14.40;63.20
14884;DHT22;7534;50.762;7.000;2023-04-25T16:05:12;14.70;58.70
14884;DHT22;7534;50.762;7.000;2023-04-25T16:07:40;14.70;58.40